Neave, Kentucky
Current Conditions -  °F | °C
As of 1:53 PM on Tuesday 21 Oct 2014 (Local Time) from KLUK Reporting Station
Overcast Overcast  
Wind Chill: 54°   Ceiling: 5000
Heat Index: 54°   Visibility: 10mi
Dew Point: 40°   Wind: 10mph
Humidity: 59%   Direction: 340°NNW
Pressure: 30.06"   Gusts: 21mph
Location:  38.6506°N, 84.351°W
Report Text: KLUK 211753Z 34009G18KT 10SM OVC050 12/04 A3006 RMK AO2 SLP178 T01220044 10133 20100 53004
Loading
Personal Weather Stations






























Interactive Weather Map
Tropical Storm Tracking
New forecast layout! Learn more

10-Day Weather Forecast

Advertisements
Track Severe Weather on mobile